createdAt,value
2022-10-19T00:02:12.591Z,99.90
2022-10-19T00:04:41.111Z,99.90
2022-10-19T00:07:09.730Z,99.90
2022-10-19T00:09:38.320Z,99.90
2022-10-19T00:12:07.410Z,99.90
2022-10-19T00:14:35.900Z,99.90
2022-10-19T00:17:05.949Z,99.90
2022-10-19T00:19:34.514Z,99.90
2022-10-19T00:22:02.945Z,99.90
2022-10-19T00:24:31.657Z,99.90
2022-10-19T00:27:19.236Z,99.90
2022-10-19T00:29:47.976Z,99.90
2022-10-19T00:32:17.933Z,99.90
2022-10-19T00:35:41.260Z,99.90
2022-10-19T00:38:09.856Z,99.90
2022-10-19T00:40:39.864Z,99.90
2022-10-19T00:43:15.312Z,99.90
2022-10-19T00:45:44.373Z,99.90
2022-10-19T00:48:19.937Z,99.90
2022-10-19T00:50:54.404Z,99.90
2022-10-19T00:53:24.915Z,99.90
2022-10-19T00:55:53.790Z,99.90
2022-10-19T00:58:22.527Z,99.90
2022-10-19T01:01:20.085Z,99.90
2022-10-19T01:04:15.861Z,99.90
2022-10-19T01:06:44.539Z,99.90
2022-10-19T01:09:13.274Z,99.90
2022-10-19T01:11:52.345Z,99.90
2022-10-19T01:14:37.891Z,99.90
2022-10-19T01:17:20.999Z,99.90
2022-10-19T01:20:33.966Z,99.90
2022-10-19T01:23:31.496Z,99.90
2022-10-19T01:26:22.737Z,99.90
2022-10-19T01:29:41.948Z,99.90
2022-10-19T01:32:24.297Z,99.90
2022-10-19T01:35:04.360Z,99.90
2022-10-19T01:37:43.976Z,99.90
2022-10-19T01:40:28.757Z,99.90
2022-10-19T01:43:04.192Z,99.90
2022-10-19T01:45:42.681Z,99.90
2022-10-19T01:48:18.931Z,99.90
2022-10-19T01:50:58.377Z,99.90
2022-10-19T01:53:34.212Z,99.90
2022-10-19T01:56:06.086Z,99.90
2022-10-19T01:58:38.863Z,99.90
2022-10-19T02:01:12.200Z,99.90
2022-10-19T02:03:43.206Z,99.90
2022-10-19T02:06:14.072Z,99.90
2022-10-19T02:08:48.687Z,99.90
2022-10-19T02:11:18.059Z,99.90
2022-10-19T02:13:49.587Z,99.90
2022-10-19T02:16:25.076Z,99.90
2022-10-19T02:18:57.000Z,99.90
2022-10-19T02:21:25.955Z,99.90
2022-10-19T02:23:54.722Z,99.90
2022-10-19T02:26:24.150Z,99.90
2022-10-19T02:28:54.656Z,99.90
2022-10-19T02:31:24.371Z,99.90
2022-10-19T02:33:55.330Z,99.90
2022-10-19T02:36:24.530Z,99.90
2022-10-19T02:39:18.313Z,99.90
2022-10-19T02:41:55.865Z,99.90
2022-10-19T02:44:31.413Z,99.90
2022-10-19T02:47:07.596Z,99.90
2022-10-19T02:49:40.068Z,99.90
2022-10-19T02:52:11.235Z,99.90
2022-10-19T02:54:43.207Z,99.90
2022-10-19T02:57:18.815Z,99.90
2022-10-19T03:00:13.536Z,99.90
2022-10-19T03:02:54.101Z,99.90
2022-10-19T03:05:24.250Z,99.90
2022-10-19T03:07:52.825Z,99.90
2022-10-19T03:10:21.276Z,99.90
2022-10-19T03:12:49.925Z,99.90
2022-10-19T03:15:19.425Z,99.90
2022-10-19T03:17:48.050Z,99.90
2022-10-19T03:20:16.876Z,99.90
2022-10-19T03:23:25.408Z,99.90
2022-10-19T03:25:53.871Z,99.90
2022-10-19T03:28:22.555Z,99.90
2022-10-19T03:30:51.103Z,99.90
2022-10-19T03:33:19.952Z,99.90
2022-10-19T03:35:48.462Z,99.90
2022-10-19T03:38:17.088Z,99.90
2022-10-19T03:40:47.259Z,99.90
2022-10-19T03:43:15.742Z,99.90
2022-10-19T03:45:47.777Z,99.90
2022-10-19T03:48:19.569Z,99.90
2022-10-19T03:50:48.451Z,99.90
2022-10-19T03:53:17.292Z,99.90
2022-10-19T03:55:47.298Z,99.90
2022-10-19T03:58:15.806Z,99.90
2022-10-19T04:00:44.507Z,99.90
2022-10-19T04:03:16.056Z,99.90
2022-10-19T04:05:44.621Z,99.90
2022-10-19T04:08:13.221Z,99.90
2022-10-19T04:10:41.831Z,99.90
2022-10-19T04:13:12.224Z,99.90
2022-10-19T04:15:41.249Z,99.90
2022-10-19T04:18:09.847Z,99.90
2022-10-19T04:20:42.270Z,99.90
2022-10-19T04:25:51.090Z,99.90
2022-10-19T04:28:21.292Z,99.90
2022-10-19T04:30:49.916Z,99.90
2022-10-19T04:33:18.402Z,99.90
2022-10-19T04:35:47.275Z,99.90
2022-10-19T04:38:15.981Z,99.90
2022-10-19T04:40:44.462Z,99.90
2022-10-19T04:43:12.904Z,99.90
2022-10-19T04:45:43.232Z,99.90
2022-10-19T04:48:15.007Z,99.90
2022-10-19T04:50:43.898Z,99.90
2022-10-19T04:53:12.730Z,99.90
2022-10-19T04:55:43.516Z,99.90
2022-10-19T04:58:12.300Z,99.90
2022-10-19T05:00:42.859Z,99.90
2022-10-19T05:03:11.624Z,99.90
2022-10-19T05:05:40.093Z,99.90
2022-10-19T05:08:11.225Z,99.90
2022-10-19T05:10:42.159Z,99.90
2022-10-19T05:13:14.046Z,99.90
2022-10-19T05:15:43.953Z,99.90
2022-10-19T05:18:12.587Z,99.90
2022-10-19T05:20:41.053Z,99.90
2022-10-19T05:23:09.895Z,99.90
2022-10-19T05:25:38.351Z,99.90
2022-10-19T05:28:06.838Z,99.90
2022-10-19T05:30:35.510Z,99.90
2022-10-19T05:33:05.482Z,99.90
2022-10-19T05:35:33.999Z,99.90
2022-10-19T05:38:02.697Z,99.90
2022-10-19T05:40:31.142Z,99.90
2022-10-19T05:42:59.620Z,99.90
2022-10-19T05:45:28.106Z,99.90
2022-10-19T05:47:56.849Z,99.90
2022-10-19T05:50:57.459Z,99.90
2022-10-19T05:53:26.026Z,99.90
2022-10-19T05:55:54.592Z,99.90
2022-10-19T05:58:23.522Z,99.90
2022-10-19T06:00:57.275Z,99.90
2022-10-19T06:03:27.100Z,99.90
2022-10-19T06:05:59.108Z,99.90
2022-10-19T06:08:27.947Z,99.90
2022-10-19T06:11:07.224Z,99.90
2022-10-19T06:13:35.799Z,99.90
2022-10-19T06:16:05.235Z,99.90
2022-10-19T06:18:34.368Z,99.90
2022-10-19T06:21:07.522Z,99.90
2022-10-19T06:23:37.326Z,99.90
2022-10-19T06:26:32.107Z,99.90
2022-10-19T06:29:02.925Z,99.90
2022-10-19T06:31:33.657Z,99.90
2022-10-19T06:34:02.678Z,99.40
2022-10-19T06:36:33.290Z,99.20
2022-10-19T06:39:02.868Z,98.10
2022-10-19T06:41:32.548Z,97.90
2022-10-19T06:44:01.105Z,97.00
2022-10-19T06:46:29.857Z,95.10
2022-10-19T06:49:00.575Z,95.70
2022-10-19T06:51:34.178Z,95.30
2022-10-19T06:54:02.785Z,94.60
2022-10-19T06:56:31.735Z,94.60
2022-10-19T06:59:00.808Z,92.90
2022-10-19T07:01:29.809Z,91.50
2022-10-19T07:03:58.512Z,90.60
2022-10-19T07:06:29.360Z,90.10
2022-10-19T07:08:59.358Z,88.10
2022-10-19T07:11:27.926Z,87.60
2022-10-19T07:13:56.428Z,86.70
2022-10-19T07:16:25.091Z,86.00
2022-10-19T07:18:54.925Z,84.70
2022-10-19T07:21:24.630Z,82.50
2022-10-19T07:23:53.221Z,80.40
2022-10-19T07:26:27.410Z,80.40
2022-10-19T07:28:58.686Z,79.10
2022-10-19T07:31:30.274Z,77.80
2022-10-19T07:34:00.919Z,75.70
2022-10-19T07:36:31.985Z,74.00
2022-10-19T07:39:02.379Z,73.20
2022-10-19T07:41:32.267Z,72.10
2022-10-19T07:44:00.762Z,73.30
2022-10-19T07:46:33.506Z,73.10
2022-10-19T07:49:02.752Z,72.20
2022-10-19T07:51:31.399Z,71.80
2022-10-19T07:54:00.182Z,71.60
2022-10-19T07:56:55.238Z,70.30
2022-10-19T07:59:23.690Z,69.60
2022-10-19T08:01:53.697Z,69.00
2022-10-19T08:07:11.469Z,67.50
2022-10-19T08:09:52.868Z,65.80
2022-10-19T08:12:23.610Z,65.30
2022-10-19T08:14:52.174Z,65.80
2022-10-19T08:17:20.669Z,65.80
2022-10-19T08:19:49.164Z,65.00
2022-10-19T08:22:17.627Z,64.50
2022-10-19T08:24:46.134Z,64.70
2022-10-19T08:27:15.558Z,64.30
2022-10-19T08:29:45.389Z,63.60
2022-10-19T08:32:13.851Z,61.60
2022-10-19T08:34:42.574Z,61.60
2022-10-19T08:37:20.150Z,62.80
2022-10-19T08:39:54.784Z,60.80
2022-10-19T08:42:33.233Z,62.30
2022-10-19T08:45:33.823Z,60.40
2022-10-19T08:48:24.679Z,59.60
2022-10-19T08:50:55.266Z,57.90
2022-10-19T08:53:34.567Z,56.90
2022-10-19T08:56:38.843Z,56.60
2022-10-19T08:59:23.070Z,57.00
2022-10-19T09:01:56.927Z,56.60
2022-10-19T09:04:32.027Z,55.90
2022-10-19T09:07:24.510Z,56.40
2022-10-19T09:09:58.356Z,57.30
2022-10-19T09:12:39.750Z,57.30
2022-10-19T09:15:15.946Z,57.60
2022-10-19T09:17:45.900Z,57.50
2022-10-19T09:20:21.070Z,58.20
2022-10-19T09:23:02.802Z,58.00
2022-10-19T09:25:34.262Z,57.40
2022-10-19T09:28:17.800Z,58.80
2022-10-19T09:30:48.942Z,58.80
2022-10-19T09:33:31.586Z,58.10
2022-10-19T09:36:03.454Z,58.20
2022-10-19T09:38:32.655Z,58.60
2022-10-19T09:41:17.841Z,58.00
2022-10-19T09:43:54.038Z,58.70
2022-10-19T09:46:38.665Z,58.60
2022-10-19T09:49:08.789Z,59.00
2022-10-19T09:51:58.095Z,59.50
2022-10-19T09:54:35.528Z,58.90
2022-10-19T09:57:07.753Z,59.00
2022-10-19T09:59:38.181Z,60.40
2022-10-19T10:02:18.587Z,60.20
2022-10-19T10:04:56.790Z,61.30
2022-10-19T10:07:35.791Z,61.30
2022-10-19T10:10:13.071Z,61.40
2022-10-19T10:12:42.141Z,60.90
2022-10-19T10:15:18.992Z,61.00
2022-10-19T10:17:50.042Z,60.90
2022-10-19T10:20:28.484Z,60.00
2022-10-19T10:23:01.269Z,58.80
2022-10-19T10:25:34.433Z,58.70
2022-10-19T10:28:25.650Z,58.00
2022-10-19T10:31:01.859Z,58.50
2022-10-19T10:33:44.261Z,57.50
2022-10-19T10:36:15.524Z,57.70
2022-10-19T10:38:51.113Z,57.60
2022-10-19T10:41:23.659Z,57.00
2022-10-19T10:44:00.762Z,56.90
2022-10-19T10:46:38.470Z,55.40
2022-10-19T10:49:17.852Z,53.60
2022-10-19T10:51:53.970Z,54.00
2022-10-19T10:54:25.416Z,53.70
2022-10-19T10:57:13.944Z,54.70
2022-10-19T10:59:55.067Z,52.60
2022-10-19T11:02:49.164Z,53.50
2022-10-19T11:05:25.076Z,55.30
2022-10-19T11:08:04.513Z,54.90
2022-10-19T11:10:40.526Z,53.80
2022-10-19T11:13:42.380Z,54.00
2022-10-19T11:16:17.163Z,53.80
2022-10-19T11:18:53.207Z,53.20
2022-10-19T11:21:32.025Z,53.10
2022-10-19T11:24:18.751Z,53.40
2022-10-19T11:27:05.745Z,53.10
2022-10-19T11:30:03.592Z,53.70
2022-10-19T11:32:52.833Z,53.70
2022-10-19T11:35:40.961Z,52.30
2022-10-19T11:38:35.070Z,53.60
2022-10-19T11:41:30.101Z,53.40
2022-10-19T11:44:29.337Z,53.80
2022-10-19T11:47:20.725Z,53.40
2022-10-19T11:50:04.251Z,53.70
2022-10-19T11:52:46.693Z,53.90
2022-10-19T11:55:32.044Z,53.40
2022-10-19T11:58:19.418Z,52.80
2022-10-19T12:01:02.052Z,53.70
2022-10-19T12:04:07.803Z,54.40
2022-10-19T12:06:47.076Z,53.50
2022-10-19T12:09:35.920Z,54.00
2022-10-19T12:12:25.156Z,53.80
2022-10-19T12:15:06.527Z,54.90
2022-10-19T12:17:40.732Z,54.40
2022-10-19T12:20:21.680Z,54.00
2022-10-19T12:22:51.691Z,53.90
2022-10-19T12:25:22.530Z,54.20
2022-10-19T12:27:52.360Z,54.50
2022-10-19T12:30:25.628Z,53.90
2022-10-19T12:33:13.545Z,53.90
2022-10-19T12:36:02.456Z,54.00
2022-10-19T12:38:50.950Z,55.20
2022-10-19T12:41:44.376Z,55.00
2022-10-19T12:44:42.360Z,55.70
2022-10-19T12:47:21.851Z,55.00
2022-10-19T12:49:52.436Z,55.20
2022-10-19T12:52:44.470Z,55.70
2022-10-19T12:55:43.526Z,55.30
2022-10-19T12:58:22.855Z,55.30
2022-10-19T13:01:01.467Z,55.60
2022-10-19T13:03:36.008Z,55.30
2022-10-19T13:06:20.213Z,55.60
2022-10-19T13:08:58.946Z,55.40
2022-10-19T13:11:28.052Z,56.20
2022-10-19T13:14:04.945Z,56.40
2022-10-19T13:17:08.972Z,56.00
2022-10-19T13:19:41.725Z,56.00
2022-10-19T13:22:29.736Z,56.50
2022-10-19T13:25:31.944Z,56.10
2022-10-19T13:28:37.561Z,56.00
2022-10-19T13:31:26.019Z,56.30
2022-10-19T13:33:56.707Z,56.50
2022-10-19T13:36:32.057Z,55.80
2022-10-19T13:39:08.637Z,55.50
2022-10-19T13:42:01.584Z,55.60
2022-10-19T13:44:39.674Z,56.10
2022-10-19T13:47:41.450Z,55.80
2022-10-19T13:50:35.264Z,56.00
2022-10-19T13:53:28.622Z,56.70
2022-10-19T13:56:19.386Z,56.50
2022-10-19T13:59:33.921Z,57.30
2022-10-19T14:03:24.174Z,56.90
2022-10-19T14:06:18.838Z,57.10
2022-10-19T14:09:25.617Z,57.50
2022-10-19T14:12:07.021Z,57.90
2022-10-19T14:14:43.576Z,58.30
2022-10-19T14:19:57.264Z,57.60
2022-10-19T14:22:41.323Z,58.00
2022-10-19T14:25:21.529Z,58.10
2022-10-19T14:27:59.959Z,57.70
2022-10-19T14:30:32.534Z,58.10
2022-10-19T14:33:08.075Z,58.20
2022-10-19T14:35:41.273Z,57.90
2022-10-19T14:38:20.043Z,58.00
2022-10-19T14:40:49.993Z,58.30
2022-10-19T14:43:23.635Z,58.10
2022-10-19T14:46:13.267Z,58.60
2022-10-19T14:48:45.869Z,58.90
2022-10-19T14:51:33.903Z,59.50
2022-10-19T14:54:09.242Z,59.50
2022-10-19T14:56:49.713Z,59.80
2022-10-19T14:59:26.247Z,60.00
2022-10-19T15:01:58.004Z,60.50
2022-10-19T15:04:31.442Z,60.80
2022-10-19T15:07:04.222Z,61.10
2022-10-19T15:09:48.038Z,61.80
2022-10-19T15:12:24.327Z,62.60
2022-10-19T15:14:53.606Z,63.30
2022-10-19T15:17:32.097Z,63.70
2022-10-19T15:20:02.064Z,64.20
2022-10-19T15:22:41.796Z,65.00
2022-10-19T15:25:37.118Z,65.40
2022-10-19T15:28:36.119Z,66.40
2022-10-19T15:31:16.910Z,67.20
2022-10-19T15:33:51.068Z,68.10
2022-10-19T15:36:22.309Z,68.90
2022-10-19T15:39:17.949Z,69.70
2022-10-19T15:41:54.059Z,70.30
2022-10-19T15:44:41.774Z,70.80
2022-10-19T15:47:25.484Z,71.60
2022-10-19T15:50:02.078Z,72.40
2022-10-19T15:52:34.036Z,73.00
2022-10-19T15:55:03.379Z,74.00
2022-10-19T15:57:35.469Z,74.50
2022-10-19T16:00:16.064Z,74.90
2022-10-19T16:02:45.385Z,75.40
2022-10-19T16:05:14.026Z,76.90
2022-10-19T16:07:43.347Z,76.70
2022-10-19T16:10:18.816Z,77.10
2022-10-19T16:12:47.735Z,77.90
2022-10-19T16:15:23.865Z,78.50
2022-10-19T16:17:55.407Z,79.10
2022-10-19T16:20:25.225Z,79.60
2022-10-19T16:22:54.047Z,80.20
2022-10-19T16:25:22.803Z,80.80
2022-10-19T16:27:51.811Z,81.50
2022-10-19T16:30:24.678Z,82.10
2022-10-19T16:32:53.531Z,83.10
2022-10-19T16:35:22.393Z,83.90
2022-10-19T16:37:51.263Z,84.70
2022-10-19T16:40:19.918Z,85.50
2022-10-19T16:42:49.097Z,86.60
2022-10-19T16:45:18.266Z,87.30
2022-10-19T16:47:51.197Z,88.20
2022-10-19T16:50:20.558Z,88.70
2022-10-19T16:53:11.599Z,89.20
2022-10-19T16:55:42.413Z,90.10
2022-10-19T16:58:13.808Z,90.60
2022-10-19T17:00:42.301Z,90.90
2022-10-19T17:03:12.515Z,91.30
2022-10-19T17:05:41.425Z,91.80
2022-10-19T17:08:11.814Z,92.30
2022-10-19T17:10:44.913Z,92.90
2022-10-19T17:13:13.606Z,93.20
2022-10-19T17:15:43.594Z,93.70
2022-10-19T17:18:14.315Z,94.20
2022-10-19T17:20:43.032Z,94.60
2022-10-19T17:23:12.401Z,94.50
2022-10-19T17:25:49.134Z,94.70
2022-10-19T17:28:17.841Z,95.10
2022-10-19T17:31:06.947Z,95.80
2022-10-19T17:33:38.594Z,96.50
2022-10-19T17:36:10.805Z,97.10
2022-10-19T17:38:40.815Z,97.50
2022-10-19T17:41:12.446Z,98.00
2022-10-19T17:44:07.304Z,98.40
2022-10-19T17:46:37.859Z,98.90
2022-10-19T17:49:33.465Z,99.30
2022-10-19T17:52:02.342Z,99.50
2022-10-19T17:54:36.240Z,99.80
2022-10-19T17:57:15.555Z,99.90
2022-10-19T17:59:54.550Z,99.90
2022-10-19T18:02:23.493Z,99.90
2022-10-19T18:04:53.554Z,99.90
2022-10-19T18:07:25.773Z,99.90
2022-10-19T18:09:54.629Z,99.90
2022-10-19T18:12:23.331Z,99.90
2022-10-19T18:14:52.138Z,99.90
2022-10-19T18:17:24.087Z,99.90
2022-10-19T18:19:57.426Z,99.90
2022-10-19T18:22:26.366Z,99.90
2022-10-19T18:24:55.404Z,99.90
2022-10-19T18:27:24.271Z,99.90
2022-10-19T18:29:56.882Z,99.90
2022-10-19T18:32:25.963Z,99.90
2022-10-19T18:34:54.926Z,99.90
2022-10-19T18:37:25.176Z,99.90
2022-10-19T18:39:54.208Z,99.90
2022-10-19T18:42:23.021Z,99.90
2022-10-19T18:44:51.625Z,99.90
2022-10-19T18:47:20.402Z,99.90
2022-10-19T18:49:49.061Z,99.90
2022-10-19T18:52:18.482Z,99.90
2022-10-19T18:55:18.984Z,99.90
2022-10-19T18:57:47.782Z,99.90
2022-10-19T19:00:26.264Z,99.90
2022-10-19T19:02:56.246Z,99.90
2022-10-19T19:05:25.336Z,99.90
2022-10-19T19:07:55.354Z,99.90
2022-10-19T19:10:25.699Z,99.90
2022-10-19T19:12:54.391Z,99.90
2022-10-19T19:15:30.998Z,99.90
2022-10-19T19:18:24.779Z,99.90
2022-10-19T19:20:53.733Z,99.90
2022-10-19T19:23:22.292Z,99.90
2022-10-19T19:25:52.573Z,99.90
2022-10-19T19:28:21.375Z,99.90
2022-10-19T19:30:50.113Z,99.90
2022-10-19T19:33:18.644Z,99.90
2022-10-19T19:35:50.793Z,99.90
2022-10-19T19:38:19.810Z,99.90
2022-10-19T19:40:48.645Z,99.90
2022-10-19T19:43:20.262Z,99.90
2022-10-19T19:46:00.025Z,99.90
2022-10-19T19:48:30.872Z,99.90
2022-10-19T19:51:00.484Z,99.90
2022-10-19T19:53:29.033Z,99.90
2022-10-19T19:55:57.473Z,99.90
2022-10-19T19:58:27.726Z,99.90
2022-10-19T20:00:56.624Z,99.90
2022-10-19T20:03:25.224Z,99.90
2022-10-19T20:05:53.940Z,99.90
2022-10-19T20:08:22.747Z,99.90
2022-10-19T20:10:51.413Z,99.90
2022-10-19T20:13:20.053Z,99.90
2022-10-19T20:15:50.341Z,99.90
2022-10-19T20:18:18.873Z,99.90
2022-10-19T20:20:47.428Z,99.90
2022-10-19T20:23:16.006Z,99.90
2022-10-19T20:25:44.559Z,99.90
2022-10-19T20:28:13.415Z,99.90
2022-10-19T20:30:44.693Z,99.90
2022-10-19T20:33:14.839Z,99.90
2022-10-19T20:35:43.812Z,99.90
2022-10-19T20:38:12.330Z,99.90
2022-10-19T20:40:41.795Z,99.90
2022-10-19T20:43:11.397Z,99.90
2022-10-19T20:45:40.033Z,99.90
2022-10-19T20:48:08.661Z,99.90
2022-10-19T20:50:39.779Z,99.90
2022-10-19T20:53:09.506Z,99.90
2022-10-19T20:55:38.021Z,99.90
2022-10-19T20:58:06.557Z,99.90
2022-10-19T21:00:41.270Z,99.90
2022-10-19T21:03:09.831Z,99.90
2022-10-19T21:05:40.862Z,99.90
2022-10-19T21:08:10.266Z,99.90
2022-10-19T21:10:39.150Z,99.90
2022-10-19T21:13:07.788Z,99.90
2022-10-19T21:15:36.482Z,99.90
2022-10-19T21:18:05.266Z,99.90
2022-10-19T21:20:33.789Z,99.90
2022-10-19T21:23:03.877Z,99.90
2022-10-19T21:25:58.409Z,99.90
2022-10-19T21:28:26.900Z,99.90
2022-10-19T21:30:55.723Z,99.90
2022-10-19T21:33:27.430Z,99.90
2022-10-19T21:35:55.878Z,99.90
2022-10-19T21:38:26.423Z,99.90
2022-10-19T21:40:59.826Z,99.90
2022-10-19T21:43:29.602Z,99.90
2022-10-19T21:45:58.557Z,99.90
2022-10-19T21:48:27.218Z,99.90
2022-10-19T21:50:55.825Z,99.90
2022-10-19T21:53:26.686Z,99.90
2022-10-19T21:55:55.701Z,99.90
2022-10-19T21:58:24.500Z,99.90
2022-10-19T22:00:53.020Z,99.90
2022-10-19T22:03:21.570Z,99.90
2022-10-19T22:05:54.182Z,99.90
2022-10-19T22:08:22.881Z,99.90
2022-10-19T22:10:53.265Z,99.90
2022-10-19T22:13:22.239Z,99.90
2022-10-19T22:15:50.888Z,99.90
2022-10-19T22:18:19.554Z,99.90
2022-10-19T22:20:48.344Z,99.90
2022-10-19T22:23:17.005Z,99.90
2022-10-19T22:25:45.584Z,99.90
2022-10-19T22:28:15.911Z,99.90
2022-10-19T22:30:45.136Z,99.90
2022-10-19T22:33:14.644Z,99.90
2022-10-19T22:35:43.038Z,99.90
2022-10-19T22:38:11.974Z,99.90
2022-10-19T22:40:40.582Z,99.90
2022-10-19T22:43:29.442Z,99.90
2022-10-19T22:46:33.853Z,99.90
2022-10-19T22:49:38.310Z,99.90
2022-10-19T22:52:25.646Z,99.90
2022-10-19T22:54:54.792Z,99.90
2022-10-19T22:57:23.246Z,99.90
2022-10-19T22:59:53.043Z,99.90
2022-10-19T23:02:21.602Z,99.90
2022-10-19T23:04:53.869Z,99.90
2022-10-19T23:07:22.665Z,99.90
2022-10-19T23:09:51.276Z,99.90
2022-10-19T23:12:19.902Z,99.90
2022-10-19T23:14:48.433Z,99.90
2022-10-19T23:17:18.620Z,99.90
2022-10-19T23:19:47.390Z,99.90
2022-10-19T23:22:40.878Z,99.90
2022-10-19T23:25:10.659Z,99.90
2022-10-19T23:27:39.363Z,99.90
2022-10-19T23:30:09.372Z,99.90
2022-10-19T23:33:04.190Z,99.90
2022-10-19T23:35:32.700Z,99.90
2022-10-19T23:38:01.577Z,99.90
2022-10-19T23:40:30.346Z,99.90
2022-10-19T23:43:00.339Z,99.90
2022-10-19T23:45:29.158Z,99.90
2022-10-19T23:47:59.807Z,99.90
2022-10-19T23:50:30.031Z,99.90
2022-10-19T23:52:58.613Z,99.90
2022-10-19T23:55:27.439Z,99.90
2022-10-19T23:57:56.058Z,99.90
